sensor_id;sensor_type;location;lat;lon;timestamp;pressure;altitude;pressure_sealevel;temperature;humidity
57234;BME280;43090;52.604;13.318;2024-03-25T00:02:45;99188.47;;;5.89;100.00
57234;BME280;43090;52.604;13.318;2024-03-25T00:12:11;99184.94;;;5.65;100.00
57234;BME280;43090;52.604;13.318;2024-03-25T00:21:38;99204.81;;;5.95;100.00
57234;BME280;43090;52.604;13.318;2024-03-25T00:24:04;99185.19;;;5.62;100.00
57234;BME280;43090;52.604;13.318;2024-03-25T00:26:38;99206.94;;;5.79;100.00
57234;BME280;43090;52.604;13.318;2024-03-25T00:29:17;99199.59;;;5.82;100.00
57234;BME280;43090;52.604;13.318;2024-03-25T00:32:24;99215.59;;;5.70;100.00
57234;BME280;43090;52.604;13.318;2024-03-25T00:35:28;99195.97;;;5.83;100.00
57234;BME280;43090;52.604;13.318;2024-03-25T00:41:07;99235.78;;;6.08;100.00
57234;BME280;43090;52.604;13.318;2024-03-25T00:43:53;99239.41;;;6.07;100.00
57234;BME280;43090;52.604;13.318;2024-03-25T00:46:19;99244.97;;;6.04;100.00
57234;BME280;43090;52.604;13.318;2024-03-25T00:48:44;99247.16;;;6.21;100.00
57234;BME280;43090;52.604;13.318;2024-03-25T00:51:10;99246.84;;;6.26;100.00
57234;BME280;43090;52.604;13.318;2024-03-25T00:53:35;99249.69;;;6.23;100.00
57234;BME280;43090;52.604;13.318;2024-03-25T00:56:01;99252.25;;;6.24;100.00
57234;BME280;43090;52.604;13.318;2024-03-25T00:58:26;99234.84;;;6.20;100.00
57234;BME280;43090;52.604;13.318;2024-03-25T01:00:52;99244.03;;;6.27;100.00
57234;BME280;43090;52.604;13.318;2024-03-25T01:03:17;99254.19;;;6.33;100.00
57234;BME280;43090;52.604;13.318;2024-03-25T01:05:43;99246.06;;;6.12;100.00
57234;BME280;43090;52.604;13.318;2024-03-25T01:08:08;99240.47;;;6.04;100.00
57234;BME280;43090;52.604;13.318;2024-03-25T01:10:36;99213.13;;;5.91;100.00
57234;BME280;43090;52.604;13.318;2024-03-25T01:13:01;99228.06;;;5.80;100.00
57234;BME280;43090;52.604;13.318;2024-03-25T01:15:27;99260.19;;;5.77;100.00
57234;BME280;43090;52.604;13.318;2024-03-25T01:17:53;99251.28;;;6.14;100.00
57234;BME280;43090;52.604;13.318;2024-03-25T01:20:18;99266.97;;;6.28;100.00
57234;BME280;43090;52.604;13.318;2024-03-25T01:22:43;99261.81;;;6.38;100.00
57234;BME280;43090;52.604;13.318;2024-03-25T01:25:09;99261.69;;;6.40;100.00
57234;BME280;43090;52.604;13.318;2024-03-25T01:27:35;99251.53;;;6.22;100.00
57234;BME280;43090;52.604;13.318;2024-03-25T01:30:00;99271.63;;;6.49;100.00
57234;BME280;43090;52.604;13.318;2024-03-25T01:32:28;99274.25;;;6.38;100.00
57234;BME280;43090;52.604;13.318;2024-03-25T01:34:54;99281.25;;;6.39;100.00
57234;BME280;43090;52.604;13.318;2024-03-25T01:37:20;99269.78;;;6.38;100.00
57234;BME280;43090;52.604;13.318;2024-03-25T01:39:45;99276.09;;;6.02;100.00
57234;BME280;43090;52.604;13.318;2024-03-25T01:42:11;99253.56;;;6.07;100.00
57234;BME280;43090;52.604;13.318;2024-03-25T01:44:38;99259.94;;;6.05;100.00
57234;BME280;43090;52.604;13.318;2024-03-25T01:47:04;99282.84;;;6.30;100.00
57234;BME280;43090;52.604;13.318;2024-03-25T01:49:29;99255.09;;;6.10;100.00
57234;BME280;43090;52.604;13.318;2024-03-25T01:51:55;99283.69;;;6.30;100.00
57234;BME280;43090;52.604;13.318;2024-03-25T01:54:21;99272.25;;;6.06;100.00
57234;BME280;43090;52.604;13.318;2024-03-25T01:56:47;99287.03;;;6.21;100.00
57234;BME280;43090;52.604;13.318;2024-03-25T01:59:13;99285.47;;;6.19;100.00
57234;BME280;43090;52.604;13.318;2024-03-25T02:01:41;99284.38;;;6.21;100.00
57234;BME280;43090;52.604;13.318;2024-03-25T02:04:06;99266.63;;;5.97;100.00
57234;BME280;43090;52.604;13.318;2024-03-25T02:06:32;99282.38;;;6.00;100.00
57234;BME280;43090;52.604;13.318;2024-03-25T02:08:58;99296.81;;;5.96;100.00
57234;BME280;43090;52.604;13.318;2024-03-25T02:11:24;99302.56;;;6.03;100.00
57234;BME280;43090;52.604;13.318;2024-03-25T02:13:52;99286.06;;;5.62;100.00
57234;BME280;43090;52.604;13.318;2024-03-25T02:16:18;99288.94;;;5.83;100.00
57234;BME280;43090;52.604;13.318;2024-03-25T02:18:44;99306.69;;;6.07;100.00
57234;BME280;43090;52.604;13.318;2024-03-25T02:21:10;99306.19;;;6.02;100.00
57234;BME280;43090;52.604;13.318;2024-03-25T02:23:37;99310.00;;;5.98;100.00
57234;BME280;43090;52.604;13.318;2024-03-25T02:26:04;99326.00;;;5.85;100.00
57234;BME280;43090;52.604;13.318;2024-03-25T02:28:29;99310.41;;;5.80;100.00
57234;BME280;43090;52.604;13.318;2024-03-25T02:46:21;99343.25;;;4.92;100.00
57234;BME280;43090;52.604;13.318;2024-03-25T02:48:46;99344.06;;;5.18;100.00
57234;BME280;43090;52.604;13.318;2024-03-25T02:51:12;99335.34;;;5.29;100.00
57234;BME280;43090;52.604;13.318;2024-03-25T02:53:37;99347.84;;;5.40;100.00
57234;BME280;43090;52.604;13.318;2024-03-25T02:56:03;99336.34;;;5.53;100.00
57234;BME280;43090;52.604;13.318;2024-03-25T02:58:29;99346.16;;;5.63;100.00
57234;BME280;43090;52.604;13.318;2024-03-25T03:00:54;99360.34;;;5.75;100.00
57234;BME280;43090;52.604;13.318;2024-03-25T03:03:19;99348.16;;;5.73;100.00
57234;BME280;43090;52.604;13.318;2024-03-25T03:05:45;99337.03;;;5.30;100.00
57234;BME280;43090;52.604;13.318;2024-03-25T03:08:11;99362.63;;;5.68;100.00
57234;BME280;43090;52.604;13.318;2024-03-25T03:10:36;99349.69;;;5.64;100.00
57234;BME280;43090;52.604;13.318;2024-03-25T03:13:02;99339.06;;;5.64;100.00
57234;BME280;43090;52.604;13.318;2024-03-25T03:15:27;99376.81;;;5.80;100.00
57234;BME280;43090;52.604;13.318;2024-03-25T03:17:53;99375.19;;;5.91;100.00
57234;BME280;43090;52.604;13.318;2024-03-25T03:20:18;99367.03;;;5.81;100.00
57234;BME280;43090;52.604;13.318;2024-03-25T03:22:44;99381.75;;;5.98;100.00
57234;BME280;43090;52.604;13.318;2024-03-25T03:25:10;99377.41;;;5.97;100.00
57234;BME280;43090;52.604;13.318;2024-03-25T03:27:35;99385.28;;;5.98;100.00
57234;BME280;43090;52.604;13.318;2024-03-25T03:30:01;99387.06;;;5.98;100.00
57234;BME280;43090;52.604;13.318;2024-03-25T03:32:26;99378.47;;;5.94;100.00
57234;BME280;43090;52.604;13.318;2024-03-25T03:34:52;99387.78;;;5.76;100.00
57234;BME280;43090;52.604;13.318;2024-03-25T03:37:17;99398.66;;;5.97;100.00
57234;BME280;43090;52.604;13.318;2024-03-25T03:39:43;99394.53;;;5.56;100.00
57234;BME280;43090;52.604;13.318;2024-03-25T03:42:08;99409.03;;;5.76;100.00
57234;BME280;43090;52.604;13.318;2024-03-25T03:44:37;99399.47;;;5.73;100.00
57234;BME280;43090;52.604;13.318;2024-03-25T03:47:02;99405.69;;;5.85;100.00
57234;BME280;43090;52.604;13.318;2024-03-25T03:49:28;99411.22;;;5.82;100.00
57234;BME280;43090;52.604;13.318;2024-03-25T03:51:53;99422.06;;;5.79;100.00
57234;BME280;43090;52.604;13.318;2024-03-25T03:54:19;99419.94;;;5.84;100.00
57234;BME280;43090;52.604;13.318;2024-03-25T03:56:44;99426.91;;;5.98;100.00
57234;BME280;43090;52.604;13.318;2024-03-25T03:59:10;99432.69;;;5.79;100.00
57234;BME280;43090;52.604;13.318;2024-03-25T04:01:35;99419.03;;;5.96;100.00
57234;BME280;43090;52.604;13.318;2024-03-25T04:04:01;99430.56;;;5.84;100.00
57234;BME280;43090;52.604;13.318;2024-03-25T04:06:26;99437.88;;;5.93;100.00
57234;BME280;43090;52.604;13.318;2024-03-25T04:08:52;99444.13;;;5.42;100.00
57234;BME280;43090;52.604;13.318;2024-03-25T04:11:17;99447.06;;;5.63;100.00
57234;BME280;43090;52.604;13.318;2024-03-25T04:13:43;99439.19;;;5.75;100.00
57234;BME280;43090;52.604;13.318;2024-03-25T04:16:08;99442.91;;;5.72;100.00
57234;BME280;43090;52.604;13.318;2024-03-25T04:18:34;99438.38;;;5.61;100.00
57234;BME280;43090;52.604;13.318;2024-03-25T04:21:00;99451.63;;;5.74;100.00
57234;BME280;43090;52.604;13.318;2024-03-25T04:23:26;99453.94;;;5.79;100.00
57234;BME280;43090;52.604;13.318;2024-03-25T04:25:52;99448.06;;;5.62;100.00
57234;BME280;43090;52.604;13.318;2024-03-25T04:28:20;99462.25;;;5.74;100.00
57234;BME280;43090;52.604;13.318;2024-03-25T04:30:53;99461.91;;;5.79;100.00
57234;BME280;43090;52.604;13.318;2024-03-25T04:33:18;99466.91;;;5.83;100.00
57234;BME280;43090;52.604;13.318;2024-03-25T04:35:45;99468.28;;;5.76;100.00
57234;BME280;43090;52.604;13.318;2024-03-25T04:38:10;99481.25;;;5.81;100.00
57234;BME280;43090;52.604;13.318;2024-03-25T04:40:36;99486.47;;;5.57;100.00
57234;BME280;43090;52.604;13.318;2024-03-25T04:43:02;99486.63;;;5.92;100.00
57234;BME280;43090;52.604;13.318;2024-03-25T04:45:28;99479.25;;;5.72;100.00
57234;BME280;43090;52.604;13.318;2024-03-25T04:47:53;99488.59;;;5.64;100.00
57234;BME280;43090;52.604;13.318;2024-03-25T04:50:19;99477.47;;;5.59;100.00
57234;BME280;43090;52.604;13.318;2024-03-25T04:52:44;99500.69;;;5.68;100.00
57234;BME280;43090;52.604;13.318;2024-03-25T04:55:09;99500.41;;;5.60;100.00
57234;BME280;43090;52.604;13.318;2024-03-25T04:57:35;99499.03;;;5.42;100.00
57234;BME280;43090;52.604;13.318;2024-03-25T05:00:01;99496.25;;;5.69;100.00
57234;BME280;43090;52.604;13.318;2024-03-25T05:02:27;99513.69;;;5.60;100.00
57234;BME280;43090;52.604;13.318;2024-03-25T05:04:53;99509.22;;;5.35;100.00
57234;BME280;43090;52.604;13.318;2024-03-25T05:07:18;99514.63;;;5.59;100.00
57234;BME280;43090;52.604;13.318;2024-03-25T05:09:44;99512.31;;;5.55;100.00
57234;BME280;43090;52.604;13.318;2024-03-25T05:12:10;99525.78;;;5.64;100.00
57234;BME280;43090;52.604;13.318;2024-03-25T05:14:35;99521.84;;;5.70;100.00
57234;BME280;43090;52.604;13.318;2024-03-25T05:17:01;99521.63;;;5.86;100.00
57234;BME280;43090;52.604;13.318;2024-03-25T05:19:28;99532.25;;;5.60;100.00
57234;BME280;43090;52.604;13.318;2024-03-25T05:21:54;99523.44;;;5.73;100.00
57234;BME280;43090;52.604;13.318;2024-03-25T05:24:19;99519.75;;;5.62;100.00
57234;BME280;43090;52.604;13.318;2024-03-25T05:26:45;99526.53;;;5.66;100.00
57234;BME280;43090;52.604;13.318;2024-03-25T05:29:10;99520.69;;;5.74;100.00
57234;BME280;43090;52.604;13.318;2024-03-25T05:31:36;99544.03;;;5.82;100.00
57234;BME280;43090;52.604;13.318;2024-03-25T05:34:02;99559.88;;;5.71;100.00
57234;BME280;43090;52.604;13.318;2024-03-25T05:36:33;99553.09;;;5.66;100.00
57234;BME280;43090;52.604;13.318;2024-03-25T05:38:59;99562.19;;;5.88;100.00
57234;BME280;43090;52.604;13.318;2024-03-25T05:41:25;99556.34;;;5.83;100.00
57234;BME280;43090;52.604;13.318;2024-03-25T05:43:50;99567.28;;;5.91;100.00
57234;BME280;43090;52.604;13.318;2024-03-25T05:46:16;99561.69;;;5.57;100.00
57234;BME280;43090;52.604;13.318;2024-03-25T05:48:41;99567.94;;;5.82;100.00
57234;BME280;43090;52.604;13.318;2024-03-25T05:51:08;99572.28;;;5.96;100.00
57234;BME280;43090;52.604;13.318;2024-03-25T05:53:34;99577.19;;;5.63;100.00
57234;BME280;43090;52.604;13.318;2024-03-25T05:55:59;99555.09;;;5.63;100.00
57234;BME280;43090;52.604;13.318;2024-03-25T05:58:25;99582.50;;;5.76;100.00
57234;BME280;43090;52.604;13.318;2024-03-25T06:00:51;99575.41;;;5.77;100.00
57234;BME280;43090;52.604;13.318;2024-03-25T06:03:16;99577.19;;;5.76;100.00
57234;BME280;43090;52.604;13.318;2024-03-25T06:05:43;99582.81;;;5.84;100.00
57234;BME280;43090;52.604;13.318;2024-03-25T06:08:08;99584.72;;;5.57;100.00
57234;BME280;43090;52.604;13.318;2024-03-25T06:10:43;99580.47;;;5.54;100.00
57234;BME280;43090;52.604;13.318;2024-03-25T06:13:09;99593.53;;;5.83;100.00
57234;BME280;43090;52.604;13.318;2024-03-25T06:15:34;99588.16;;;5.72;100.00
57234;BME280;43090;52.604;13.318;2024-03-25T06:18:00;99594.53;;;5.69;100.00
57234;BME280;43090;52.604;13.318;2024-03-25T06:20:25;99603.34;;;5.82;100.00
57234;BME280;43090;52.604;13.318;2024-03-25T06:22:51;99589.06;;;5.45;100.00
57234;BME280;43090;52.604;13.318;2024-03-25T06:25:16;99616.28;;;5.61;100.00
57234;BME280;43090;52.604;13.318;2024-03-25T06:27:42;99613.13;;;5.69;100.00
57234;BME280;43090;52.604;13.318;2024-03-25T06:30:09;99618.19;;;5.59;100.00
57234;BME280;43090;52.604;13.318;2024-03-25T06:32:54;99625.75;;;5.65;100.00
57234;BME280;43090;52.604;13.318;2024-03-25T06:35:38;99624.69;;;5.68;100.00
57234;BME280;43090;52.604;13.318;2024-03-25T06:38:03;99607.56;;;5.72;100.00
57234;BME280;43090;52.604;13.318;2024-03-25T06:40:29;99639.03;;;5.78;100.00
57234;BME280;43090;52.604;13.318;2024-03-25T06:42:57;99641.06;;;6.00;100.00
57234;BME280;43090;52.604;13.318;2024-03-25T06:45:23;99638.94;;;5.80;100.00
57234;BME280;43090;52.604;13.318;2024-03-25T06:47:49;99629.16;;;5.67;100.00
57234;BME280;43090;52.604;13.318;2024-03-25T06:50:15;99616.50;;;5.45;100.00
57234;BME280;43090;52.604;13.318;2024-03-25T07:00:08;99653.91;;;5.68;100.00
57234;BME280;43090;52.604;13.318;2024-03-25T07:02:39;99683.22;;;5.92;100.00
57234;BME280;43090;52.604;13.318;2024-03-25T07:05:10;99652.84;;;5.71;100.00
57234;BME280;43090;52.604;13.318;2024-03-25T07:07:35;99662.25;;;5.49;100.00
57234;BME280;43090;52.604;13.318;2024-03-25T07:10:02;99671.97;;;5.76;100.00
57234;BME280;43090;52.604;13.318;2024-03-25T07:12:28;99669.84;;;5.68;100.00
57234;BME280;43090;52.604;13.318;2024-03-25T07:14:59;99682.63;;;6.02;100.00
57234;BME280;43090;52.604;13.318;2024-03-25T07:17:25;99690.25;;;5.93;100.00
57234;BME280;43090;52.604;13.318;2024-03-25T07:19:51;99682.19;;;5.95;100.00
57234;BME280;43090;52.604;13.318;2024-03-25T07:22:17;99694.38;;;5.84;100.00
57234;BME280;43090;52.604;13.318;2024-03-25T07:24:43;99701.28;;;5.74;100.00
57234;BME280;43090;52.604;13.318;2024-03-25T07:27:10;99698.41;;;5.77;100.00
57234;BME280;43090;52.604;13.318;2024-03-25T07:29:37;99705.66;;;5.88;100.00
57234;BME280;43090;52.604;13.318;2024-03-25T07:32:26;99690.34;;;5.79;100.00
57234;BME280;43090;52.604;13.318;2024-03-25T07:34:57;99729.84;;;6.11;100.00
57234;BME280;43090;52.604;13.318;2024-03-25T07:37:25;99713.94;;;5.96;100.00
57234;BME280;43090;52.604;13.318;2024-03-25T07:39:51;99705.03;;;5.97;100.00
57234;BME280;43090;52.604;13.318;2024-03-25T07:42:18;99700.78;;;5.95;100.00
57234;BME280;43090;52.604;13.318;2024-03-25T07:52:23;99749.53;;;5.81;100.00
57234;BME280;43090;52.604;13.318;2024-03-25T07:54:51;99736.38;;;5.92;100.00
57234;BME280;43090;52.604;13.318;2024-03-25T07:57:38;99715.97;;;5.80;100.00
57234;BME280;43090;52.604;13.318;2024-03-25T08:11:21;99770.44;;;6.13;100.00
57234;BME280;43090;52.604;13.318;2024-03-25T08:13:48;99764.09;;;6.15;100.00
57234;BME280;43090;52.604;13.318;2024-03-25T08:16:14;99774.81;;;6.40;100.00
57234;BME280;43090;52.604;13.318;2024-03-25T08:36:53;99767.38;;;6.45;100.00
57234;BME280;43090;52.604;13.318;2024-03-25T08:46:54;99804.28;;;6.62;100.00
57234;BME280;43090;52.604;13.318;2024-03-25T08:49:40;99773.53;;;6.58;100.00
57234;BME280;43090;52.604;13.318;2024-03-25T08:52:46;99766.50;;;6.57;100.00
57234;BME280;43090;52.604;13.318;2024-03-25T08:58:59;99804.41;;;6.74;100.00
57234;BME280;43090;52.604;13.318;2024-03-25T09:05:15;99792.16;;;6.84;100.00
57234;BME280;43090;52.604;13.318;2024-03-25T09:08:03;99814.84;;;7.27;100.00
57234;BME280;43090;52.604;13.318;2024-03-25T09:10:35;99819.75;;;7.20;100.00
57234;BME280;43090;52.604;13.318;2024-03-25T09:13:20;99843.47;;;7.36;100.00
57234;BME280;43090;52.604;13.318;2024-03-25T09:15:57;99805.78;;;7.29;100.00
57234;BME280;43090;52.604;13.318;2024-03-25T09:18:32;99809.16;;;6.94;100.00
57234;BME280;43090;52.604;13.318;2024-03-25T09:21:22;99817.22;;;7.06;100.00
57234;BME280;43090;52.604;13.318;2024-03-25T09:26:56;99828.97;;;6.90;100.00
57234;BME280;43090;52.604;13.318;2024-03-25T09:29:46;99825.44;;;7.03;100.00
57234;BME280;43090;52.604;13.318;2024-03-25T09:32:43;99835.16;;;6.91;100.00
57234;BME280;43090;52.604;13.318;2024-03-25T09:37:58;99854.50;;;6.80;100.00
57234;BME280;43090;52.604;13.318;2024-03-25T10:08:48;99880.72;;;7.86;100.00
57234;BME280;43090;52.604;13.318;2024-03-25T10:11:15;99886.09;;;7.73;100.00
57234;BME280;43090;52.604;13.318;2024-03-25T10:13:40;99894.72;;;7.77;100.00
57234;BME280;43090;52.604;13.318;2024-03-25T10:16:07;99896.81;;;8.09;100.00
57234;BME280;43090;52.604;13.318;2024-03-25T10:19:11;99911.91;;;7.73;100.00
57234;BME280;43090;52.604;13.318;2024-03-25T10:21:40;99873.56;;;7.62;100.00
57234;BME280;43090;52.604;13.318;2024-03-25T10:27:09;99876.59;;;7.82;100.00
57234;BME280;43090;52.604;13.318;2024-03-25T10:29:37;99890.44;;;8.23;100.00
57234;BME280;43090;52.604;13.318;2024-03-25T10:32:03;99899.66;;;7.94;94.50
57234;BME280;43090;52.604;13.318;2024-03-25T10:34:31;99887.88;;;8.10;97.17
57234;BME280;43090;52.604;13.318;2024-03-25T10:36:57;99917.81;;;8.38;99.09
57234;BME280;43090;52.604;13.318;2024-03-25T10:39:27;99921.88;;;8.30;94.22
57234;BME280;43090;52.604;13.318;2024-03-25T10:41:56;99925.28;;;8.32;93.83
57234;BME280;43090;52.604;13.318;2024-03-25T10:44:23;99911.41;;;8.76;95.06
57234;BME280;43090;52.604;13.318;2024-03-25T10:46:57;99917.97;;;8.83;90.73
57234;BME280;43090;52.604;13.318;2024-03-25T10:49:56;99916.75;;;8.76;90.32
57234;BME280;43090;52.604;13.318;2024-03-25T10:52:22;99928.31;;;8.52;90.21
57234;BME280;43090;52.604;13.318;2024-03-25T10:54:49;99920.69;;;8.10;91.19
57234;BME280;43090;52.604;13.318;2024-03-25T10:57:16;99917.91;;;8.12;92.02
57234;BME280;43090;52.604;13.318;2024-03-25T10:59:42;99923.19;;;8.00;91.23
57234;BME280;43090;52.604;13.318;2024-03-25T11:02:10;99909.50;;;7.81;91.33
57234;BME280;43090;52.604;13.318;2024-03-25T11:04:36;99910.34;;;7.81;88.05
57234;BME280;43090;52.604;13.318;2024-03-25T11:07:13;99926.41;;;8.17;88.97
57234;BME280;43090;52.604;13.318;2024-03-25T11:09:39;99929.78;;;8.56;87.08
57234;BME280;43090;52.604;13.318;2024-03-25T11:12:05;99931.13;;;8.13;79.79
57234;BME280;43090;52.604;13.318;2024-03-25T11:14:31;99920.41;;;8.26;83.22
57234;BME280;43090;52.604;13.318;2024-03-25T11:16:58;99931.03;;;8.15;85.64
57234;BME280;43090;52.604;13.318;2024-03-25T11:19:27;99930.84;;;8.29;86.45
57234;BME280;43090;52.604;13.318;2024-03-25T11:21:55;99923.84;;;8.40;85.03
57234;BME280;43090;52.604;13.318;2024-03-25T11:24:31;99924.00;;;8.74;84.32
57234;BME280;43090;52.604;13.318;2024-03-25T11:26:56;99916.13;;;8.72;83.83
57234;BME280;43090;52.604;13.318;2024-03-25T11:29:22;99924.19;;;8.59;83.38
57234;BME280;43090;52.604;13.318;2024-03-25T11:31:52;99923.69;;;8.54;82.58
57234;BME280;43090;52.604;13.318;2024-03-25T11:34:19;99924.38;;;8.45;81.34
57234;BME280;43090;52.604;13.318;2024-03-25T11:36:44;99916.94;;;8.61;81.37
57234;BME280;43090;52.604;13.318;2024-03-25T11:39:11;99918.41;;;8.77;80.52
57234;BME280;43090;52.604;13.318;2024-03-25T11:41:41;99923.34;;;8.94;82.65
57234;BME280;43090;52.604;13.318;2024-03-25T11:44:11;99929.81;;;8.43;82.14
57234;BME280;43090;52.604;13.318;2024-03-25T11:46:39;99933.66;;;8.52;81.48
57234;BME280;43090;52.604;13.318;2024-03-25T11:49:09;99925.41;;;8.31;76.92
57234;BME280;43090;52.604;13.318;2024-03-25T11:51:35;99920.41;;;8.02;76.58
57234;BME280;43090;52.604;13.318;2024-03-25T11:54:03;99916.38;;;8.21;79.78
57234;BME280;43090;52.604;13.318;2024-03-25T11:56:30;99927.00;;;8.09;81.82
57234;BME280;43090;52.604;13.318;2024-03-25T11:58:57;99910.47;;;8.04;81.38
57234;BME280;43090;52.604;13.318;2024-03-25T12:01:23;99913.19;;;8.40;80.50
57234;BME280;43090;52.604;13.318;2024-03-25T12:03:48;99927.69;;;8.24;78.80
57234;BME280;43090;52.604;13.318;2024-03-25T12:06:14;99929.25;;;8.27;78.62
57234;BME280;43090;52.604;13.318;2024-03-25T12:08:39;99897.84;;;8.19;77.70
57234;BME280;43090;52.604;13.318;2024-03-25T12:11:25;99898.22;;;8.26;78.53
57234;BME280;43090;52.604;13.318;2024-03-25T12:13:50;99922.63;;;8.57;80.51
57234;BME280;43090;52.604;13.318;2024-03-25T12:16:17;99920.00;;;8.79;77.98
57234;BME280;43090;52.604;13.318;2024-03-25T12:18:42;99917.72;;;8.86;79.19
57234;BME280;43090;52.604;13.318;2024-03-25T12:21:10;99919.16;;;8.90;80.36
57234;BME280;43090;52.604;13.318;2024-03-25T12:23:35;99907.47;;;9.38;76.12
57234;BME280;43090;52.604;13.318;2024-03-25T12:26:02;99913.88;;;9.47;76.73
57234;BME280;43090;52.604;13.318;2024-03-25T12:28:33;99905.63;;;9.50;76.07
57234;BME280;43090;52.604;13.318;2024-03-25T12:31:08;99905.38;;;9.19;73.92
57234;BME280;43090;52.604;13.318;2024-03-25T12:33:43;99895.41;;;8.76;74.85
57234;BME280;43090;52.604;13.318;2024-03-25T12:36:12;99910.00;;;8.94;74.92
57234;BME280;43090;52.604;13.318;2024-03-25T12:38:37;99905.06;;;8.77;74.40
57234;BME280;43090;52.604;13.318;2024-03-25T12:41:05;99905.06;;;8.65;74.07
57234;BME280;43090;52.604;13.318;2024-03-25T12:43:34;99886.66;;;8.14;72.23
57234;BME280;43090;52.604;13.318;2024-03-25T12:46:23;99909.84;;;8.49;76.40
57234;BME280;43090;52.604;13.318;2024-03-25T12:56:39;99914.00;;;9.23;74.52
57234;BME280;43090;52.604;13.318;2024-03-25T12:59:07;99884.97;;;9.18;75.33
57234;BME280;43090;52.604;13.318;2024-03-25T13:01:36;99900.28;;;9.39;75.09
57234;BME280;43090;52.604;13.318;2024-03-25T13:04:04;99885.22;;;9.38;72.65
57234;BME280;43090;52.604;13.318;2024-03-25T13:06:32;99878.56;;;9.32;72.04
57234;BME280;43090;52.604;13.318;2024-03-25T13:12:55;99886.53;;;8.98;68.47
57234;BME280;43090;52.604;13.318;2024-03-25T13:15:21;99925.88;;;9.07;68.41
57234;BME280;43090;52.604;13.318;2024-03-25T13:17:47;99913.88;;;9.13;68.36
57234;BME280;43090;52.604;13.318;2024-03-25T14:08:27;99939.53;;;9.38;70.30
57234;BME280;43090;52.604;13.318;2024-03-25T14:10:57;99921.28;;;9.09;69.49
57234;BME280;43090;52.604;13.318;2024-03-25T14:13:26;99934.38;;;9.12;71.46
57234;BME280;43090;52.604;13.318;2024-03-25T14:15:57;99924.28;;;8.93;72.65
57234;BME280;43090;52.604;13.318;2024-03-25T14:37:14;99938.31;;;10.20;64.36
57234;BME280;43090;52.604;13.318;2024-03-25T14:39:55;99909.50;;;9.69;64.04
57234;BME280;43090;52.604;13.318;2024-03-25T14:42:37;99918.78;;;9.97;65.03
57234;BME280;43090;52.604;13.318;2024-03-25T14:45:06;99904.72;;;10.16;62.27
57234;BME280;43090;52.604;13.318;2024-03-25T14:47:32;99916.59;;;10.34;63.88
57234;BME280;43090;52.604;13.318;2024-03-25T14:49:58;99950.97;;;10.07;64.75
57234;BME280;43090;52.604;13.318;2024-03-25T14:52:24;99926.34;;;10.36;65.45
57234;BME280;43090;52.604;13.318;2024-03-25T14:54:50;99936.56;;;10.63;63.89
57234;BME280;43090;52.604;13.318;2024-03-25T14:57:47;99917.13;;;9.84;63.55
57234;BME280;43090;52.604;13.318;2024-03-25T15:00:22;99917.47;;;9.91;64.54
57234;BME280;43090;52.604;13.318;2024-03-25T15:06:57;99916.41;;;9.48;67.82
57234;BME280;43090;52.604;13.318;2024-03-25T15:09:23;99919.22;;;9.24;70.26
57234;BME280;43090;52.604;13.318;2024-03-25T15:12:04;99917.16;;;9.28;68.63
57234;BME280;43090;52.604;13.318;2024-03-25T15:14:30;99923.19;;;8.84;71.47
57234;BME280;43090;52.604;13.318;2024-03-25T15:16:58;99916.53;;;9.02;71.19
57234;BME280;43090;52.604;13.318;2024-03-25T15:19:25;99959.13;;;8.56;73.85
57234;BME280;43090;52.604;13.318;2024-03-25T15:21:51;99947.59;;;8.56;76.29
57234;BME280;43090;52.604;13.318;2024-03-25T15:24:17;99942.44;;;8.17;80.00
57234;BME280;43090;52.604;13.318;2024-03-25T15:27:06;99951.00;;;8.33;81.63
57234;BME280;43090;52.604;13.318;2024-03-25T15:29:31;99954.97;;;8.28;82.82
57234;BME280;43090;52.604;13.318;2024-03-25T15:31:57;99968.72;;;7.97;87.07
57234;BME280;43090;52.604;13.318;2024-03-25T15:49:55;99963.09;;;7.89;89.96
57234;BME280;43090;52.604;13.318;2024-03-25T15:53:11;99946.41;;;7.74;89.73
57234;BME280;43090;52.604;13.318;2024-03-25T15:55:52;99949.75;;;8.02;89.16
57234;BME280;43090;52.604;13.318;2024-03-25T15:58:18;99944.84;;;7.96;89.36
57234;BME280;43090;52.604;13.318;2024-03-25T16:00:46;99959.34;;;8.05;89.51
57234;BME280;43090;52.604;13.318;2024-03-25T16:03:40;99965.59;;;8.16;88.43
57234;BME280;43090;52.604;13.318;2024-03-25T16:06:11;99939.75;;;7.93;88.15
57234;BME280;43090;52.604;13.318;2024-03-25T16:08:37;99925.47;;;7.94;87.71
57234;BME280;43090;52.604;13.318;2024-03-25T16:11:03;99930.34;;;8.00;88.24
57234;BME280;43090;52.604;13.318;2024-03-25T16:13:29;99925.97;;;7.99;88.78
57234;BME280;43090;52.604;13.318;2024-03-25T16:16:02;99948.00;;;8.14;88.23
57234;BME280;43090;52.604;13.318;2024-03-25T16:18:30;99952.94;;;8.07;88.77
57234;BME280;43090;52.604;13.318;2024-03-25T16:20:59;99942.69;;;8.01;88.50
57234;BME280;43090;52.604;13.318;2024-03-25T16:23:25;99943.25;;;7.93;87.52
57234;BME280;43090;52.604;13.318;2024-03-25T16:25:51;99948.72;;;7.92;87.04
57234;BME280;43090;52.604;13.318;2024-03-25T16:28:17;99941.91;;;7.88;89.01
57234;BME280;43090;52.604;13.318;2024-03-25T16:30:43;99952.16;;;7.81;91.41
57234;BME280;43090;52.604;13.318;2024-03-25T16:33:12;99941.94;;;7.75;91.37
57234;BME280;43090;52.604;13.318;2024-03-25T16:35:38;99934.81;;;7.62;91.41
57234;BME280;43090;52.604;13.318;2024-03-25T16:38:04;99953.00;;;7.68;90.82
57234;BME280;43090;52.604;13.318;2024-03-25T16:40:36;99953.66;;;7.59;92.95
57234;BME280;43090;52.604;13.318;2024-03-25T16:43:02;99947.94;;;7.53;93.53
57234;BME280;43090;52.604;13.318;2024-03-25T16:45:36;99948.16;;;7.62;92.62
57234;BME280;43090;52.604;13.318;2024-03-25T16:48:02;99934.97;;;7.48;93.53
57234;BME280;43090;52.604;13.318;2024-03-25T16:50:28;99957.75;;;7.52;95.07